Orbital elements of COSMOS 970 DEB
| Launched | 20 December 1977 |
| Flight ended | – |
| Launch site | Tyuratam Missile and Space Center, Kazakhstan (Also known as Baikonur Cosmodrome) |
| Owner | Commonwealth of Independent States (former USSR) |
| NORAD ID | 13505 |
| Date fetched |
Epoch osculation |
Inc. [°] |
Ecc. | RA asc node [hr] |
Arg Peri. [°] |
Mean anom [°] |
Mean motion [rev/day] |
Abs. mag |
| Date fetched |
Epoch osculation |
Inc. [°] |
Ecc. | RA asc node [hr] |
Arg Peri. [°] |
Mean anom [°] |
Mean motion [rev/day] |
Abs. mag |
| 2026 May 03 17:57 | 2026 Apr 30 02:05:12 | 65.3551 | 0.00130 | 14.5971 | 141.7490 | 280.3442 | 13.61249 | – |
| 2026 May 02 17:57 | 2026 Apr 30 02:05:12 | 65.3551 | 0.00130 | 14.5971 | 141.7490 | 280.3442 | 13.61249 | – |
| 2026 May 01 17:56 | 2026 Apr 30 02:05:12 | 65.3551 | 0.00130 | 14.5971 | 141.7490 | 280.3442 | 13.61249 | – |
| 2026 Apr 30 17:56 | 2026 Apr 30 02:05:12 | 65.3551 | 0.00130 | 14.5971 | 141.7490 | 280.3442 | 13.61249 | – |
| 2026 Apr 29 17:57 | 2026 Apr 24 08:25:03 | 65.3552 | 0.00137 | 15.5370 | 142.1310 | 280.3442 | 13.61249 | – |
| 2026 Apr 28 17:56 | 2026 Apr 24 08:25:03 | 65.3552 | 0.00137 | 15.5370 | 142.1310 | 280.3442 | 13.61249 | – |
| 2026 Apr 27 17:58 | 2026 Apr 24 08:25:03 | 65.3552 | 0.00137 | 15.5370 | 142.1310 | 280.3442 | 13.61249 | – |
| 2026 Apr 26 17:58 | 2026 Apr 24 08:25:03 | 65.3552 | 0.00137 | 15.5370 | 142.1310 | 280.3442 | 13.61249 | – |
| 2026 Apr 25 17:58 | 2026 Apr 24 08:25:03 | 65.3552 | 0.00137 | 15.5370 | 142.1310 | 280.3442 | 13.61249 | – |
| 2026 Apr 24 17:59 | 2026 Apr 24 08:25:03 | 65.3552 | 0.00137 | 15.5370 | 142.1310 | 280.3442 | 13.61249 | – |
| 2026 Apr 23 17:57 | 2026 Apr 19 05:10:46 | 65.3548 | 0.00142 | 16.3785 | 142.6267 | 280.3442 | 13.61249 | – |
| 2026 Apr 22 17:57 | 2026 Apr 19 05:10:46 | 65.3548 | 0.00142 | 16.3785 | 142.6267 | 280.3442 | 13.61249 | – |
| 2026 Apr 21 17:57 | 2026 Apr 19 05:10:46 | 65.3548 | 0.00142 | 16.3785 | 142.6267 | 280.3442 | 13.61249 | – |
| 2026 Apr 20 17:57 | 2026 Apr 19 05:10:46 | 65.3548 | 0.00142 | 16.3785 | 142.6267 | 280.3442 | 13.61249 | – |
| 2026 Apr 19 17:58 | 2026 Apr 19 05:10:46 | 65.3548 | 0.00142 | 16.3785 | 142.6267 | 280.3442 | 13.61249 | – |
| 2026 Apr 18 17:56 | 2026 Apr 13 06:16:29 | 65.3551 | 0.00146 | 17.3541 | 143.5223 | 280.3442 | 13.61249 | – |
| 2026 Apr 16 17:57 | 2026 Apr 13 06:16:29 | 65.3551 | 0.00146 | 17.3541 | 143.5223 | 280.3442 | 13.61249 | – |
| 2026 Apr 14 17:57 | 2026 Apr 13 06:16:29 | 65.3551 | 0.00146 | 17.3541 | 143.5223 | 280.3442 | 13.61249 | – |
| 2026 Apr 13 17:57 | 2026 Apr 13 06:16:29 | 65.3551 | 0.00146 | 17.3541 | 143.5223 | 280.3442 | 13.61249 | – |
| 2026 Apr 12 17:57 | 2026 Apr 08 11:29:21 | 65.3554 | 0.00147 | 18.1379 | 144.3871 | 280.3442 | 13.61249 | – |
| 2026 Apr 11 17:57 | 2026 Apr 08 11:29:21 | 65.3554 | 0.00147 | 18.1379 | 144.3871 | 280.3442 | 13.61249 | – |
| 2026 Apr 10 17:58 | 2026 Apr 08 11:29:21 | 65.3554 | 0.00147 | 18.1379 | 144.3871 | 280.3442 | 13.61249 | – |
| 2026 Apr 09 18:01 | 2026 Apr 08 11:29:21 | 65.3554 | 0.00147 | 18.1379 | 144.3871 | 280.3442 | 13.61249 | – |
| 2026 Apr 08 17:57 | 2026 Apr 08 11:29:21 | 65.3554 | 0.00147 | 18.1379 | 144.3871 | 280.3442 | 13.61249 | – |
| 2026 Apr 07 17:57 | 2026 Apr 02 07:32:50 | 65.3557 | 0.00148 | 19.1479 | 146.6435 | 280.3442 | 13.61249 | – |
| 2026 Apr 06 17:57 | 2026 Apr 02 07:32:50 | 65.3557 | 0.00148 | 19.1479 | 146.6435 | 280.3442 | 13.61249 | – |